Terminal Aerodrome Forecast
Issued by NWS Portland, ME

Home | Current Version | Previous Version | Text Only | Print | Product List | Glossary On
Versions: 1 2 3 4 5 6 7 8 9 10 11 12 13 14 15 16 17 18 19 20
000
FTUS41 KGYX 031720
TAFPWM
TAF
KPWM 031720Z 0318/0418 16005KT P6SM SCT025 OVC050
     FM040900 07003KT P6SM SCT007 OVC015
     FM041600 08009KT P6SM SCT025 BKN040=

USA.gov is the U.S. government's official web portal to all federal, state and local government web resources and services.